Portada
METAR-TAF:

METAR-TAF

Aeropuertos :

Aeropuerto Internacional de Nador

Nador, Marruecos

latitud: 34-59-20N, longitud: 003-01-42W, altitud: 175 m

Observación

El informe se hizo hace 30 minutos, a las 23:00 UTC
Viento 1 kt con dirección variable
Temperatura 23°C
Humedad 73%
Presión 1016 hPa
Visibilidad 10 km o más
Escasas nubes a una altura de 1200 ft
Nubes dispersas a una altura de 1500 ft

METAR: GMMW 212300Z VRB01KT 9999 FEW012 SCT015 23/18 Q1016 NOSIG

Hora: 00:30 (23:30 UTC)

Pronóstico

El informe se hizo hace 6 horas y 30 minutos, a las 17:00 UTC
Pronóstico válido del 21 a las 18 UTC al 22 a las 24 UTC
Viento 12 kt del noreste
Visibilidad 10 km o más
Nubes dispersas a una altura de 2300 ft
Probabilidad 30%
del 22 a las 00 UTC al 22 a las 08 UTC
Viento 2 kt con dirección variable
Visibilidad: 2000 m
neblina

TAF: GMMW 211700Z 2118/2224 04012KT 9999 SCT023 PROB30 2200/2208 VRB02KT 2000 BR

Observaciones y pronósticos meteorológicos de más de 4000 aeropuertos (mensajes METAR y TAF).

Los puntos amarillos y rojos representan las estaciones disponibles.

Ponga el ratón en el punto deseado para ver el nombre de la estación.

Haga clic para ver las observaciones y los pronósticos meteorológicos.

Para cambiar el mapa : haga clic en los botones verdes con una cruz de color negro para hacer un zoom, en el botón verde con un guión para alejar o en las flechas verdes para mapas adyacentes.


METAR-TAF: